PWSweather.com
Personal Weather Stations
Station Observations
SUBOTICARS
SuboticaYU

SuboticaYU

Lat: 46.1296717, Lon: 19.641551

Elevation: 361

Station Type: Nexus

http://sumeteo.info

High Low Average
Temperature 74.0°F23.3°C 58.1°F14.5°C 64.8°F18.2°C
Dew Point 59.3°F15.2°C 50.7°F10.4°C 55.8°F13.2°C
Winds 10.4 mph 16.7 kmh Calm Calm 3.0 mph SSE4.8 kmh SSE
Wind Gusts 13.8 mph22.2 kmh -- 4.0 mph6.4 kmh
Humidity 94% 50% 74%
Pressure 29.75 in1007.5 mb 29.68 in1005.1 mb -
Precipitation 0.47 in11.9 mm - -
Hour Temp Dew Point Humidity Winds Wind Gusts Pressure Precip Precip Rate Daily Precip Total
12:00 AM 58.1°F14.5°C 56.4°F13.6°C 94% 2.3 mph NW3.7 kmh NW 3.5 mph5.6 kmh 29.77 in1008.1 mb - 0.01 in0.3 mm 0.01 in0.3 mm
12:10 AM 58.1°F14.5°C 55.8°F13.2°C 92% 2.3 mph NW3.7 kmh NW 3.5 mph5.6 kmh 29.77 in1008.1 mb - 0.01 in0.3 mm 0.01 in0.3 mm
12:15 AM 58.1°F14.5°C 55.8°F13.2°C 92% 2.3 mph NNW3.7 kmh NNW 3.5 mph5.6 kmh 29.77 in1008.1 mb - 0.01 in0.3 mm 0.01 in0.3 mm
12:20 AM 58.1°F14.5°C 55.8°F13.2°C 92% 3.5 mph NNW5.6 kmh NNW 3.5 mph5.6 kmh 29.77 in1008.1 mb - 0.01 in0.3 mm 0.01 in0.3 mm
12:25 AM 58.1°F14.5°C 55.8°F13.2°C 92% 3.5 mph NNW5.6 kmh NNW 3.5 mph5.6 kmh 29.77 in1008.1 mb - 0.01 in0.3 mm 0.01 in0.3 mm
12:30 AM 58.1°F14.5°C 55.8°F13.2°C 92% 2.3 mph NNW3.7 kmh NNW 3.5 mph5.6 kmh 29.77 in1008.1 mb - 0.01 in0.3 mm 0.01 in0.3 mm
12:35 AM 58.5°F14.7°C 56.7°F13.7°C 94% 3.5 mph NW5.6 kmh NW 3.5 mph5.6 kmh 29.77 in1008.1 mb - 0.01 in0.3 mm 0.01 in0.3 mm
12:40 AM 58.5°F14.7°C 56.7°F13.7°C 94% 1.2 mph N1.9 kmh N 1.2 mph1.9 kmh 29.77 in1008.1 mb - 0.01 in0.3 mm 0.01 in0.3 mm
12:45 AM 58.5°F14.7°C 56.7°F13.7°C 94% 3.5 mph NW5.6 kmh NW 3.5 mph5.6 kmh 29.76 in1007.8 mb - 0.01 in0.3 mm 0.01 in0.3 mm
12:50 AM 58.5°F14.7°C 56.7°F13.7°C 94% 3.5 mph NNW5.6 kmh NNW 4.6 mph7.4 kmh 29.76 in1007.8 mb - 0.01 in0.3 mm 0.01 in0.3 mm
12:55 AM 58.5°F14.7°C 56.7°F13.7°C 94% 4.6 mph 7.4 kmh 4.6 mph7.4 kmh 29.76 in1007.8 mb - 0.01 in0.3 mm 0.01 in0.3 mm
01:00 AM 58.5°F14.7°C 56.7°F13.7°C 94% 3.5 mph N5.6 kmh N 3.5 mph5.6 kmh 29.75 in1007.5 mb - 0.00 in0.0 mm 0.01 in0.3 mm
01:10 AM 58.5°F14.7°C 56.7°F13.7°C 94% 3.5 mph NE5.6 kmh NE 3.5 mph5.6 kmh 29.75 in1007.5 mb - 0.00 in0.0 mm 0.01 in0.3 mm
01:15 AM 58.5°F14.7°C 56.7°F13.7°C 94% 3.5 mph NW5.6 kmh NW 3.5 mph5.6 kmh 29.75 in1007.5 mb - 0.00 in0.0 mm 0.01 in0.3 mm
01:20 AM 58.5°F14.7°C 56.7°F13.7°C 94% 2.3 mph NNW3.7 kmh NNW 3.5 mph5.6 kmh 29.75 in1007.5 mb - 0.00 in0.0 mm 0.01 in0.3 mm
01:25 AM 58.8°F14.9°C 57.1°F13.9°C 94% 3.5 mph N5.6 kmh N 3.5 mph5.6 kmh 29.75 in1007.5 mb - 0.00 in0.0 mm 0.01 in0.3 mm
01:30 AM 58.8°F14.9°C 57.1°F13.9°C 94% 3.5 mph NNW5.6 kmh NNW 3.5 mph5.6 kmh 29.75 in1007.5 mb - 0.00 in0.0 mm 0.01 in0.3 mm
01:35 AM 58.8°F14.9°C 57.1°F13.9°C 94% 3.5 mph NNW5.6 kmh NNW 3.5 mph5.6 kmh 29.75 in1007.5 mb - 0.00 in0.0 mm 0.01 in0.3 mm
01:40 AM 58.8°F14.9°C 57.1°F13.9°C 94% 3.5 mph N5.6 kmh N 3.5 mph5.6 kmh 29.75 in1007.5 mb - 0.00 in0.0 mm 0.01 in0.3 mm
01:45 AM 58.8°F14.9°C 57.1°F13.9°C 94% 3.5 mph NNW5.6 kmh NNW 3.5 mph5.6 kmh 29.74 in1007.1 mb - 0.00 in0.0 mm 0.01 in0.3 mm
01:50 AM 58.8°F14.9°C 57.1°F13.9°C 94% 3.5 mph NNE5.6 kmh NNE 3.5 mph5.6 kmh 29.74 in1007.1 mb - 0.00 in0.0 mm 0.01 in0.3 mm
01:55 AM 58.8°F14.9°C 57.1°F13.9°C 94% 3.5 mph NNW5.6 kmh NNW 3.5 mph5.6 kmh 29.74 in1007.1 mb - 0.00 in0.0 mm 0.01 in0.3 mm
02:00 AM 58.8°F14.9°C 57.1°F13.9°C 94% 2.3 mph NNE3.7 kmh NNE 3.5 mph5.6 kmh 29.74 in1007.1 mb - 0.00 in0.0 mm 0.01 in0.3 mm
02:10 AM 58.8°F14.9°C 57.1°F13.9°C 94% 2.3 mph NE3.7 kmh NE 3.5 mph5.6 kmh 29.74 in1007.1 mb - 0.00 in0.0 mm 0.01 in0.3 mm
02:15 AM 58.8°F14.9°C 57.1°F13.9°C 94% 2.3 mph NNE3.7 kmh NNE 2.3 mph3.7 kmh 29.73 in1006.8 mb - 0.00 in0.0 mm 0.01 in0.3 mm
02:20 AM 58.8°F14.9°C 56.5°F13.6°C 92% 2.3 mph N3.7 kmh N 3.5 mph5.6 kmh 29.73 in1006.8 mb - 0.00 in0.0 mm 0.01 in0.3 mm
02:25 AM 58.6°F14.8°C 55.7°F13.2°C 90% 2.3 mph NNE3.7 kmh NNE 3.5 mph5.6 kmh 29.73 in1006.8 mb - 0.00 in0.0 mm 0.01 in0.3 mm
02:30 AM 58.6°F14.8°C 55.7°F13.2°C 90% 2.3 mph NNE3.7 kmh NNE 4.6 mph7.4 kmh 29.72 in1006.4 mb - 0.00 in0.0 mm 0.01 in0.3 mm
02:35 AM 58.5°F14.7°C 54.9°F12.7°C 88% 3.5 mph NNE5.6 kmh NNE 3.5 mph5.6 kmh 29.72 in1006.4 mb - 0.00 in0.0 mm 0.01 in0.3 mm
02:40 AM 58.5°F14.7°C 54.9°F12.7°C 88% 2.3 mph N3.7 kmh N 3.5 mph5.6 kmh 29.72 in1006.4 mb - 0.00 in0.0 mm 0.01 in0.3 mm
02:45 AM 58.5°F14.7°C 54.9°F12.7°C 88% 3.5 mph N5.6 kmh N 4.6 mph7.4 kmh 29.72 in1006.4 mb - 0.00 in0.0 mm 0.01 in0.3 mm
02:50 AM 58.5°F14.7°C 54.9°F12.7°C 88% 4.6 mph NNW7.4 kmh NNW 4.6 mph7.4 kmh 29.72 in1006.4 mb - 0.00 in0.0 mm 0.01 in0.3 mm
02:55 AM 58.5°F14.7°C 54.9°F12.7°C 88% 3.5 mph NNE5.6 kmh NNE 4.6 mph7.4 kmh 29.72 in1006.4 mb - 0.00 in0.0 mm 0.01 in0.3 mm
03:00 AM 58.5°F14.7°C 54.9°F12.7°C 88% 3.5 mph N5.6 kmh N 3.5 mph5.6 kmh 29.71 in1006.1 mb - 0.00 in0.0 mm 0.01 in0.3 mm
03:10 AM 58.5°F14.7°C 54.9°F12.7°C 88% 4.6 mph NE7.4 kmh NE 5.8 mph9.3 kmh 29.71 in1006.1 mb - 0.00 in0.0 mm 0.01 in0.3 mm
03:15 AM 58.5°F14.7°C 54.9°F12.7°C 88% 3.5 mph N5.6 kmh N 5.8 mph9.3 kmh 29.72 in1006.4 mb - 0.00 in0.0 mm 0.01 in0.3 mm
03:20 AM 58.5°F14.7°C 54.9°F12.7°C 88% 5.8 mph E9.3 kmh E 5.8 mph9.3 kmh 29.72 in1006.4 mb - 0.00 in0.0 mm 0.01 in0.3 mm
03:25 AM 58.5°F14.7°C 54.9°F12.7°C 88% 4.6 mph NE7.4 kmh NE 5.8 mph9.3 kmh 29.72 in1006.4 mb - 0.00 in0.0 mm 0.01 in0.3 mm
03:30 AM 58.1°F14.5°C 53.0°F11.7°C 83% 4.6 mph NNE7.4 kmh NNE 4.6 mph7.4 kmh 29.71 in1006.1 mb - 0.00 in0.0 mm 0.01 in0.3 mm
03:35 AM 58.1°F14.5°C 53.0°F11.7°C 83% 3.5 mph NE5.6 kmh NE 3.5 mph5.6 kmh 29.71 in1006.1 mb - 0.00 in0.0 mm 0.01 in0.3 mm
03:40 AM 58.1°F14.5°C 53.0°F11.7°C 83% 3.5 mph NNE5.6 kmh NNE 4.6 mph7.4 kmh 29.71 in1006.1 mb - 0.00 in0.0 mm 0.01 in0.3 mm
03:45 AM 58.1°F14.5°C 53.0°F11.7°C 83% 4.6 mph NE7.4 kmh NE 5.8 mph9.3 kmh 29.70 in1005.8 mb - 0.00 in0.0 mm 0.01 in0.3 mm
03:50 AM 58.3°F14.6°C 52.5°F11.4°C 81% 3.5 mph N5.6 kmh N 4.6 mph7.4 kmh 29.70 in1005.8 mb - 0.00 in0.0 mm 0.01 in0.3 mm
03:55 AM 58.3°F14.6°C 52.5°F11.4°C 81% 3.5 mph N5.6 kmh N 4.6 mph7.4 kmh 29.70 in1005.8 mb - 0.00 in0.0 mm 0.01 in0.3 mm
04:00 AM 58.3°F14.6°C 52.5°F11.4°C 81% 4.6 mph NNW7.4 kmh NNW 4.6 mph7.4 kmh 29.71 in1006.1 mb - 0.00 in0.0 mm 0.01 in0.3 mm
04:10 AM 58.3°F14.6°C 52.5°F11.4°C 81% 3.5 mph N5.6 kmh N 4.6 mph7.4 kmh 29.71 in1006.1 mb - 0.00 in0.0 mm 0.01 in0.3 mm
04:15 AM 58.3°F14.6°C 52.5°F11.4°C 81% 4.6 mph NNE7.4 kmh NNE 8.1 mph13.0 kmh 29.70 in1005.8 mb - 0.00 in0.0 mm 0.01 in0.3 mm
04:20 AM 58.3°F14.6°C 52.5°F11.4°C 81% 3.5 mph NE5.6 kmh NE 4.6 mph7.4 kmh 29.70 in1005.8 mb - 0.00 in0.0 mm 0.01 in0.3 mm
04:25 AM 58.3°F14.6°C 52.5°F11.4°C 81% 4.6 mph N7.4 kmh N 5.8 mph9.3 kmh 29.70 in1005.8 mb - 0.00 in0.0 mm 0.01 in0.3 mm
04:30 AM 58.3°F14.6°C 52.5°F11.4°C 81% 4.6 mph N7.4 kmh N 3.5 mph5.6 kmh 29.71 in1006.1 mb - 0.00 in0.0 mm 0.01 in0.3 mm
04:35 AM 58.3°F14.6°C 52.5°F11.4°C 81% 4.6 mph NNE7.4 kmh NNE 4.6 mph7.4 kmh 29.71 in1006.1 mb - 0.00 in0.0 mm 0.01 in0.3 mm
04:40 AM 58.3°F14.6°C 52.5°F11.4°C 81% 4.6 mph N7.4 kmh N 5.8 mph9.3 kmh 29.71 in1006.1 mb - 0.00 in0.0 mm 0.01 in0.3 mm
04:45 AM 58.3°F14.6°C 52.5°F11.4°C 81% 4.6 mph N7.4 kmh N 4.6 mph7.4 kmh 29.71 in1006.1 mb - 0.00 in0.0 mm 0.01 in0.3 mm
04:50 AM 58.3°F14.6°C 52.5°F11.4°C 81% 4.6 mph N7.4 kmh N 5.8 mph9.3 kmh 29.71 in1006.1 mb - 0.00 in0.0 mm 0.01 in0.3 mm
04:55 AM 58.3°F14.6°C 52.5°F11.4°C 81% 4.6 mph NW7.4 kmh NW 5.8 mph9.3 kmh 29.71 in1006.1 mb - 0.00 in0.0 mm 0.01 in0.3 mm
05:00 AM 59.0°F15.0°C 51.1°F10.6°C 75% 4.6 mph NW7.4 kmh NW 4.6 mph7.4 kmh 29.70 in1005.8 mb - 0.00 in0.0 mm 0.01 in0.3 mm
05:10 AM 59.0°F15.0°C 51.1°F10.6°C 75% 4.6 mph ENE7.4 kmh ENE 6.9 mph11.1 kmh 29.70 in1005.8 mb - 0.00 in0.0 mm 0.01 in0.3 mm
05:15 AM 59.0°F15.0°C 51.1°F10.6°C 75% 4.6 mph N7.4 kmh N 5.8 mph9.3 kmh 29.70 in1005.8 mb - 0.00 in0.0 mm 0.01 in0.3 mm
05:20 AM 59.0°F15.0°C 51.1°F10.6°C 75% 5.8 mph NNE9.3 kmh NNE 4.6 mph7.4 kmh 29.70 in1005.8 mb - 0.00 in0.0 mm 0.01 in0.3 mm
05:25 AM 59.0°F15.0°C 51.4°F10.8°C 76% 4.6 mph NNE7.4 kmh NNE 8.1 mph13.0 kmh 29.70 in1005.8 mb - 0.00 in0.0 mm 0.01 in0.3 mm
05:30 AM 59.4°F15.2°C 50.7°F10.4°C 73% 5.8 mph NE9.3 kmh NE 4.6 mph7.4 kmh 29.72 in1006.4 mb - 0.00 in0.0 mm 0.01 in0.3 mm
05:35 AM 59.4°F15.2°C 51.1°F10.6°C 74% 5.8 mph NNE9.3 kmh NNE 8.1 mph13.0 kmh 29.72 in1006.4 mb - 0.00 in0.0 mm 0.01 in0.3 mm
05:40 AM 59.4°F15.2°C 51.4°F10.8°C 75% 4.6 mph NNW7.4 kmh NNW 8.1 mph13.0 kmh 29.72 in1006.4 mb - 0.00 in0.0 mm 0.01 in0.3 mm
05:45 AM 59.4°F15.2°C 51.4°F10.8°C 75% 5.8 mph NE9.3 kmh NE 8.1 mph13.0 kmh 29.71 in1006.1 mb - 0.00 in0.0 mm 0.01 in0.3 mm
05:50 AM 59.5°F15.3°C 51.6°F10.9°C 75% 6.9 mph NNE11.1 kmh NNE 5.8 mph9.3 kmh 29.71 in1006.1 mb - 0.00 in0.0 mm 0.01 in0.3 mm
05:55 AM 60.1°F15.6°C 51.8°F11.0°C 74% 5.8 mph NNE9.3 kmh NNE 6.9 mph11.1 kmh 29.71 in1006.1 mb - 0.00 in0.0 mm 0.01 in0.3 mm
06:00 AM 60.1°F15.6°C 51.8°F11.0°C 74% 5.8 mph N9.3 kmh N 9.2 mph14.8 kmh 29.71 in1006.1 mb - 0.00 in0.0 mm 0.01 in0.3 mm
06:10 AM 60.1°F15.6°C 51.0°F10.6°C 72% 6.9 mph N11.1 kmh N 8.1 mph13.0 kmh 29.71 in1006.1 mb - 0.00 in0.0 mm 0.01 in0.3 mm
06:15 AM 60.3°F15.7°C 51.6°F10.9°C 73% 5.8 mph NE9.3 kmh NE 5.8 mph9.3 kmh 29.71 in1006.1 mb - 0.00 in0.0 mm 0.01 in0.3 mm
06:20 AM 60.3°F15.7°C 51.6°F10.9°C 73% 5.8 mph N9.3 kmh N 8.1 mph13.0 kmh 29.71 in1006.1 mb - 0.00 in0.0 mm 0.01 in0.3 mm
06:25 AM 60.4°F15.8°C 51.7°F10.9°C 73% 4.6 mph NE7.4 kmh NE 4.6 mph7.4 kmh 29.71 in1006.1 mb - 0.00 in0.0 mm 0.01 in0.3 mm
06:30 AM 60.4°F15.8°C 51.4°F10.8°C 72% 6.9 mph N11.1 kmh N 9.2 mph14.8 kmh 29.71 in1006.1 mb - 0.00 in0.0 mm 0.01 in0.3 mm
06:35 AM 60.6°F15.9°C 51.2°F10.7°C 71% 5.8 mph NNE9.3 kmh NNE 4.6 mph7.4 kmh 29.71 in1006.1 mb - 0.00 in0.0 mm 0.01 in0.3 mm
06:40 AM 60.6°F15.9°C 50.8°F10.4°C 70% 6.9 mph NNE11.1 kmh NNE 9.2 mph14.8 kmh 29.71 in1006.1 mb - 0.00 in0.0 mm 0.01 in0.3 mm
06:45 AM 61.0°F16.1°C 51.2°F10.7°C 70% 4.6 mph NNE7.4 kmh NNE 6.9 mph11.1 kmh 29.70 in1005.8 mb - 0.00 in0.0 mm 0.01 in0.3 mm
06:50 AM 61.9°F16.6°C 51.6°F10.9°C 69% 5.8 mph NE9.3 kmh NE 8.1 mph13.0 kmh 29.70 in1005.8 mb - 0.00 in0.0 mm 0.01 in0.3 mm
06:55 AM 61.9°F16.6°C 51.6°F10.9°C 69% 6.9 mph NE11.1 kmh NE 9.2 mph14.8 kmh 29.70 in1005.8 mb - 0.00 in0.0 mm 0.01 in0.3 mm
07:00 AM 62.2°F16.8°C 52.7°F11.5°C 71% 3.5 mph NNE5.6 kmh NNE 5.8 mph9.3 kmh 29.71 in1006.1 mb - 0.00 in0.0 mm 0.01 in0.3 mm
07:10 AM 62.8°F17.1°C 52.1°F11.2°C 68% 5.8 mph NE9.3 kmh NE 8.1 mph13.0 kmh 29.71 in1006.1 mb - 0.00 in0.0 mm 0.01 in0.3 mm
07:15 AM 63.3°F17.4°C 51.8°F11.0°C 66% 8.1 mph NE13.0 kmh NE 8.1 mph13.0 kmh 29.70 in1005.8 mb - 0.00 in0.0 mm 0.01 in0.3 mm
07:20 AM 63.3°F17.4°C 52.6°F11.4°C 68% 5.8 mph N9.3 kmh N 6.9 mph11.1 kmh 29.70 in1005.8 mb - 0.00 in0.0 mm 0.01 in0.3 mm
07:25 AM 63.3°F17.4°C 52.6°F11.4°C 68% 4.6 mph NE7.4 kmh NE 3.5 mph5.6 kmh 29.70 in1005.8 mb - 0.00 in0.0 mm 0.01 in0.3 mm
07:30 AM 63.7°F17.6°C 52.9°F11.6°C 68% 5.8 mph NNE9.3 kmh NNE 6.9 mph11.1 kmh 29.71 in1006.1 mb - 0.00 in0.0 mm 0.01 in0.3 mm
07:35 AM 64.0°F17.8°C 52.4°F11.3°C 66% 6.9 mph E11.1 kmh E 4.6 mph7.4 kmh 29.71 in1006.1 mb - 0.00 in0.0 mm 0.01 in0.3 mm
07:40 AM 64.5°F18.1°C 53.7°F12.1°C 68% 5.8 mph NE9.3 kmh NE 6.9 mph11.1 kmh 29.71 in1006.1 mb - 0.00 in0.0 mm 0.01 in0.3 mm
07:45 AM 64.6°F18.1°C 53.8°F12.1°C 68% 4.6 mph ENE7.4 kmh ENE 5.8 mph9.3 kmh 29.71 in1006.1 mb - 0.00 in0.0 mm 0.01 in0.3 mm
07:50 AM 65.3°F18.5°C 54.1°F12.3°C 67% 5.8 mph NNW9.3 kmh NNW 9.2 mph14.8 kmh 29.71 in1006.1 mb - 0.00 in0.0 mm 0.01 in0.3 mm
07:55 AM 65.7°F18.7°C 54.4°F12.4°C 67% 6.9 mph NE11.1 kmh NE 6.9 mph11.1 kmh 29.71 in1006.1 mb - 0.00 in0.0 mm 0.01 in0.3 mm
08:00 AM 66.7°F19.3°C 54.6°F12.6°C 65% 8.1 mph NNE13.0 kmh NNE 10.4 mph16.7 kmh 29.71 in1006.1 mb - 0.00 in0.0 mm 0.01 in0.3 mm
08:10 AM 67.4°F19.7°C 53.9°F12.2°C 62% 5.8 mph NE9.3 kmh NE 8.1 mph13.0 kmh 29.71 in1006.1 mb - 0.00 in0.0 mm 0.01 in0.3 mm
08:15 AM 67.5°F19.7°C 54.9°F12.7°C 64% 5.8 mph NE9.3 kmh NE 8.1 mph13.0 kmh 29.72 in1006.4 mb - 0.00 in0.0 mm 0.01 in0.3 mm
08:20 AM 68.0°F20.0°C 54.5°F12.5°C 62% 5.8 mph NE9.3 kmh NE 8.1 mph13.0 kmh 29.72 in1006.4 mb - 0.00 in0.0 mm 0.01 in0.3 mm
08:25 AM 67.8°F19.9°C 53.9°F12.2°C 61% 5.8 mph NE9.3 kmh NE 8.1 mph13.0 kmh 29.72 in1006.4 mb - 0.00 in0.0 mm 0.01 in0.3 mm
08:30 AM 67.6°F19.8°C 54.6°F12.6°C 63% 5.8 mph NE9.3 kmh NE 8.1 mph13.0 kmh 29.70 in1005.8 mb - 0.00 in0.0 mm 0.01 in0.3 mm
08:35 AM 68.2°F20.1°C 54.2°F12.3°C 61% 5.8 mph NE9.3 kmh NE 8.1 mph13.0 kmh 29.70 in1005.8 mb - 0.00 in0.0 mm 0.01 in0.3 mm
08:40 AM 68.4°F20.2°C 54.4°F12.4°C 61% 5.8 mph NE9.3 kmh NE 8.1 mph13.0 kmh 29.70 in1005.8 mb - 0.00 in0.0 mm 0.01 in0.3 mm
08:45 AM 68.7°F20.4°C 55.2°F12.9°C 62% 5.8 mph NE9.3 kmh NE 8.1 mph13.0 kmh 29.70 in1005.8 mb - 0.00 in0.0 mm 0.01 in0.3 mm
08:50 AM 68.5°F20.3°C 53.6°F12.0°C 59% 5.8 mph NE9.3 kmh NE 8.1 mph13.0 kmh 29.70 in1005.8 mb - 0.00 in0.0 mm 0.01 in0.3 mm
08:55 AM 68.7°F20.4°C 54.3°F12.4°C 60% 5.8 mph NE9.3 kmh NE 8.1 mph13.0 kmh 29.70 in1005.8 mb - 0.00 in0.0 mm 0.01 in0.3 mm
09:00 AM 69.1°F20.6°C 55.1°F12.8°C 61% 8.1 mph ENE13.0 kmh ENE 10.4 mph16.7 kmh 29.71 in1006.1 mb - 0.00 in0.0 mm 0.01 in0.3 mm
09:10 AM 69.5°F20.8°C 54.6°F12.6°C 59% 6.9 mph NNE11.1 kmh NNE 10.4 mph16.7 kmh 29.71 in1006.1 mb - 0.00 in0.0 mm 0.01 in0.3 mm
09:15 AM 70.0°F21.1°C 55.5°F13.1°C 60% 6.9 mph NNE11.1 kmh NNE 10.4 mph16.7 kmh 29.71 in1006.1 mb - 0.00 in0.0 mm 0.01 in0.3 mm
09:20 AM 69.8°F21.0°C 54.4°F12.4°C 58% 6.9 mph NNE11.1 kmh NNE 10.4 mph16.7 kmh 29.71 in1006.1 mb - 0.00 in0.0 mm 0.01 in0.3 mm
09:25 AM 69.4°F20.8°C 54.5°F12.5°C 59% 6.9 mph NNE11.1 kmh NNE 9.2 mph14.8 kmh 29.71 in1006.1 mb - 0.00 in0.0 mm 0.01 in0.3 mm
09:30 AM 69.8°F21.0°C 55.3°F12.9°C 60% 3.5 mph NNE5.6 kmh NNE 4.6 mph7.4 kmh 29.71 in1006.1 mb - 0.00 in0.0 mm 0.01 in0.3 mm
09:35 AM 71.4°F21.9°C 55.8°F13.2°C 58% 3.5 mph NNE5.6 kmh NNE 4.6 mph7.4 kmh 29.71 in1006.1 mb - 0.00 in0.0 mm 0.01 in0.3 mm
09:40 AM 71.6°F22.0°C 56.5°F13.6°C 59% 3.5 mph NNE5.6 kmh NNE 4.6 mph7.4 kmh 29.71 in1006.1 mb - 0.00 in0.0 mm 0.01 in0.3 mm
09:45 AM 71.3°F21.8°C 55.7°F13.2°C 58% 8.1 mph ENE13.0 kmh ENE 4.6 mph7.4 kmh 29.71 in1006.1 mb - 0.00 in0.0 mm 0.01 in0.3 mm
09:50 AM 71.4°F21.9°C 54.9°F12.7°C 56% 8.1 mph NNE13.0 kmh NNE 13.8 mph22.2 kmh 29.71 in1006.1 mb - 0.00 in0.0 mm 0.01 in0.3 mm
09:55 AM 71.6°F22.0°C 55.6°F13.1°C 57% 8.1 mph E13.0 kmh E 8.1 mph13.0 kmh 29.71 in1006.1 mb - 0.00 in0.0 mm 0.01 in0.3 mm
10:00 AM 70.9°F21.6°C 54.9°F12.7°C 57% 5.8 mph ESE9.3 kmh ESE 4.6 mph7.4 kmh 29.71 in1006.1 mb - 0.00 in0.0 mm 0.01 in0.3 mm
10:10 AM 72.3°F22.4°C 55.7°F13.2°C 56% 5.8 mph ESE9.3 kmh ESE 4.6 mph7.4 kmh 29.71 in1006.1 mb - 0.00 in0.0 mm 0.01 in0.3 mm
10:15 AM 72.5°F22.5°C 55.5°F13.1°C 55% 5.8 mph ESE9.3 kmh ESE 4.6 mph7.4 kmh 29.71 in1006.1 mb - 0.00 in0.0 mm 0.01 in0.3 mm
10:20 AM 72.7°F22.6°C 54.6°F12.6°C 53% 5.8 mph NE9.3 kmh NE 5.8 mph9.3 kmh 29.71 in1006.1 mb - 0.00 in0.0 mm 0.01 in0.3 mm
10:25 AM 72.7°F22.6°C 55.6°F13.1°C 55% 8.1 mph N13.0 kmh N 5.8 mph9.3 kmh 29.71 in1006.1 mb - 0.00 in0.0 mm 0.01 in0.3 mm
10:30 AM 73.0°F22.8°C 55.9°F13.3°C 55% 6.9 mph ENE11.1 kmh ENE 8.1 mph13.0 kmh 29.71 in1006.1 mb - 0.00 in0.0 mm 0.01 in0.3 mm
10:35 AM 73.3°F22.9°C 56.2°F13.4°C 55% 4.6 mph NE7.4 kmh NE 6.9 mph11.1 kmh 29.71 in1006.1 mb - 0.00 in0.0 mm 0.01 in0.3 mm
10:40 AM 73.4°F23.0°C 55.2°F12.9°C 53% 6.9 mph NNE11.1 kmh NNE 6.9 mph11.1 kmh 29.71 in1006.1 mb - 0.00 in0.0 mm 0.01 in0.3 mm
10:45 AM 73.8°F23.2°C 55.6°F13.1°C 53% 5.8 mph NNE9.3 kmh NNE 3.5 mph5.6 kmh 29.71 in1006.1 mb - 0.00 in0.0 mm 0.01 in0.3 mm
10:50 AM 73.6°F23.1°C 55.9°F13.3°C 54% 8.1 mph NNE13.0 kmh NNE 10.4 mph16.7 kmh 29.71 in1006.1 mb - 0.00 in0.0 mm 0.01 in0.3 mm
10:55 AM 73.6°F23.1°C 53.8°F12.1°C 50% 8.1 mph NNE13.0 kmh NNE 6.9 mph11.1 kmh 29.71 in1006.1 mb - 0.00 in0.0 mm 0.01 in0.3 mm
11:00 AM 73.4°F23.0°C 55.7°F13.2°C 54% 3.5 mph ENE5.6 kmh ENE 3.5 mph5.6 kmh 29.71 in1006.1 mb - 0.00 in0.0 mm 0.01 in0.3 mm
11:10 AM 73.2°F22.9°C 55.6°F13.1°C 54% 6.9 mph ENE11.1 kmh ENE 3.5 mph5.6 kmh 29.71 in1006.1 mb - 0.00 in0.0 mm 0.01 in0.3 mm
11:15 AM 73.3°F22.9°C 55.2°F12.9°C 53% 5.8 mph NNE9.3 kmh NNE 3.5 mph5.6 kmh 29.71 in1006.1 mb - 0.00 in0.0 mm 0.01 in0.3 mm
11:20 AM 73.0°F22.8°C 55.4°F13.0°C 54% 5.8 mph NNE9.3 kmh NNE 10.4 mph16.7 kmh 29.71 in1006.1 mb - 0.00 in0.0 mm 0.01 in0.3 mm
11:25 AM 72.9°F22.7°C 54.7°F12.6°C 53% 4.6 mph NW7.4 kmh NW 4.6 mph7.4 kmh 29.71 in1006.1 mb - 0.00 in0.0 mm 0.01 in0.3 mm
11:30 AM 73.0°F22.8°C 55.4°F13.0°C 54% 5.8 mph NNE9.3 kmh NNE 5.8 mph9.3 kmh 29.70 in1005.8 mb - 0.00 in0.0 mm 0.01 in0.3 mm
11:35 AM 73.2°F22.9°C 55.6°F13.1°C 54% 6.9 mph NNE11.1 kmh NNE 6.9 mph11.1 kmh 29.70 in1005.8 mb - 0.00 in0.0 mm 0.01 in0.3 mm
11:40 AM 73.7°F23.2°C 55.5°F13.1°C 53% 4.6 mph NE7.4 kmh NE 6.9 mph11.1 kmh 29.70 in1005.8 mb - 0.00 in0.0 mm 0.01 in0.3 mm
11:45 AM 74.0°F23.3°C 56.3°F13.5°C 54% 3.5 mph ENE5.6 kmh ENE 5.8 mph9.3 kmh 29.70 in1005.8 mb - 0.00 in0.0 mm 0.01 in0.3 mm
11:50 AM 73.9°F23.3°C 55.2°F12.9°C 52% 6.9 mph ENE11.1 kmh ENE 8.1 mph13.0 kmh 29.70 in1005.8 mb - 0.00 in0.0 mm 0.01 in0.3 mm
11:55 AM 73.4°F23.0°C 54.7°F12.6°C 52% 6.9 mph ENE11.1 kmh ENE 8.1 mph13.0 kmh 29.70 in1005.8 mb - 0.00 in0.0 mm 0.01 in0.3 mm
12:00 PM 72.9°F22.7°C 54.7°F12.6°C 53% 4.6 mph ENE7.4 kmh ENE 8.1 mph13.0 kmh 29.70 in1005.8 mb - 0.00 in0.0 mm 0.01 in0.3 mm
12:10 PM 72.8°F22.7°C 55.1°F12.8°C 54% 4.6 mph NNE7.4 kmh NNE 3.5 mph5.6 kmh 29.70 in1005.8 mb - 0.00 in0.0 mm 0.01 in0.3 mm
12:15 PM 73.0°F22.8°C 55.4°F13.0°C 54% 4.6 mph ESE7.4 kmh ESE 3.5 mph5.6 kmh 29.71 in1006.1 mb - 0.00 in0.0 mm 0.01 in0.3 mm
12:20 PM 73.0°F22.8°C 55.4°F13.0°C 54% 4.6 mph NE7.4 kmh NE 4.6 mph7.4 kmh 29.71 in1006.1 mb - 0.00 in0.0 mm 0.01 in0.3 mm
12:25 PM 72.9°F22.7°C 54.7°F12.6°C 53% 6.9 mph NNE11.1 kmh NNE 11.5 mph18.5 kmh 29.71 in1006.1 mb - 0.00 in0.0 mm 0.01 in0.3 mm
12:30 PM 72.9°F22.7°C 54.7°F12.6°C 53% 9.2 mph NE14.8 kmh NE 9.2 mph14.8 kmh 29.71 in1006.1 mb - 0.00 in0.0 mm 0.01 in0.3 mm
12:35 PM 73.0°F22.8°C 55.4°F13.0°C 54% 5.8 mph ENE9.3 kmh ENE 12.7 mph20.4 kmh 29.71 in1006.1 mb - 0.00 in0.0 mm 0.01 in0.3 mm
12:40 PM 72.7°F22.6°C 54.6°F12.6°C 53% 6.9 mph NE11.1 kmh NE 9.2 mph14.8 kmh 29.71 in1006.1 mb - 0.00 in0.0 mm 0.01 in0.3 mm
12:45 PM 72.9°F22.7°C 54.7°F12.6°C 53% 10.4 mph ENE16.7 kmh ENE 12.7 mph20.4 kmh 29.70 in1005.8 mb - 0.00 in0.0 mm 0.01 in0.3 mm
12:50 PM 73.4°F23.0°C 55.7°F13.2°C 54% 10.4 mph ENE16.7 kmh ENE 12.7 mph20.4 kmh 29.70 in1005.8 mb - 0.00 in0.0 mm 0.01 in0.3 mm
12:55 PM 73.6°F23.1°C 54.9°F12.7°C 52% 6.9 mph E11.1 kmh E 5.8 mph9.3 kmh 29.70 in1005.8 mb - 0.00 in0.0 mm 0.01 in0.3 mm
01:00 PM 73.1°F22.8°C 54.9°F12.7°C 53% 5.8 mph ENE9.3 kmh ENE 3.5 mph5.6 kmh 29.70 in1005.8 mb - 0.00 in0.0 mm 0.01 in0.3 mm
01:10 PM 73.8°F23.2°C 55.6°F13.1°C 53% 5.8 mph NE9.3 kmh NE 8.1 mph13.0 kmh 29.70 in1005.8 mb - 0.00 in0.0 mm 0.01 in0.3 mm
01:15 PM 73.4°F23.0°C 55.2°F12.9°C 53% 4.6 mph NE7.4 kmh NE 3.5 mph5.6 kmh 29.70 in1005.8 mb - 0.00 in0.0 mm 0.01 in0.3 mm
01:20 PM 73.6°F23.1°C 54.3°F12.4°C 51% 3.5 mph NNE5.6 kmh NNE 3.5 mph5.6 kmh 29.70 in1005.8 mb - 0.00 in0.0 mm 0.01 in0.3 mm
01:25 PM 73.0°F22.8°C 55.4°F13.0°C 54% 3.5 mph ENE5.6 kmh ENE 3.5 mph5.6 kmh 29.70 in1005.8 mb - 0.00 in0.0 mm 0.01 in0.3 mm
01:30 PM 73.4°F23.0°C 55.2°F12.9°C 53% 5.8 mph ESE9.3 kmh ESE 5.8 mph9.3 kmh 29.70 in1005.8 mb - 0.00 in0.0 mm 0.01 in0.3 mm
01:35 PM 73.5°F23.1°C 54.8°F12.7°C 52% 6.9 mph WSW11.1 kmh WSW 4.6 mph7.4 kmh 29.70 in1005.8 mb - 0.00 in0.0 mm 0.01 in0.3 mm
01:40 PM 73.4°F23.0°C 55.2°F12.9°C 53% 4.6 mph SW7.4 kmh SW 4.6 mph7.4 kmh 29.70 in1005.8 mb - 0.00 in0.0 mm 0.01 in0.3 mm
01:45 PM 73.0°F22.8°C 55.4°F13.0°C 54% 8.1 mph NNE13.0 kmh NNE 5.8 mph9.3 kmh 29.70 in1005.8 mb - 0.00 in0.0 mm 0.01 in0.3 mm
01:50 PM 73.2°F22.9°C 55.1°F12.8°C 53% 8.1 mph NNE13.0 kmh NNE 9.2 mph14.8 kmh 29.70 in1005.8 mb - 0.00 in0.0 mm 0.01 in0.3 mm
01:55 PM 73.2°F22.9°C 55.1°F12.8°C 53% 5.8 mph NW9.3 kmh NW 3.5 mph5.6 kmh 29.70 in1005.8 mb - 0.00 in0.0 mm 0.01 in0.3 mm
02:00 PM 73.4°F23.0°C 54.7°F12.6°C 52% 5.8 mph NE9.3 kmh NE 6.9 mph11.1 kmh 29.70 in1005.8 mb - 0.00 in0.0 mm 0.01 in0.3 mm
02:10 PM 72.8°F22.7°C 55.2°F12.9°C 54% 3.5 mph ENE5.6 kmh ENE 3.5 mph5.6 kmh 29.70 in1005.8 mb - 0.00 in0.0 mm 0.01 in0.3 mm
02:15 PM 72.7°F22.6°C 55.1°F12.8°C 54% 3.5 mph N5.6 kmh N 4.6 mph7.4 kmh 29.69 in1005.4 mb - 0.00 in0.0 mm 0.01 in0.3 mm
02:20 PM 72.9°F22.7°C 55.2°F12.9°C 54% 4.6 mph ENE7.4 kmh ENE 5.8 mph9.3 kmh 29.69 in1005.4 mb - 0.00 in0.0 mm 0.01 in0.3 mm
02:25 PM 72.9°F22.7°C 55.2°F12.9°C 54% 3.5 mph ENE5.6 kmh ENE 2.3 mph3.7 kmh 29.69 in1005.4 mb - 0.00 in0.0 mm 0.01 in0.3 mm
02:30 PM 72.7°F22.6°C 55.6°F13.1°C 55% 2.3 mph ESE3.7 kmh ESE 3.5 mph5.6 kmh 29.69 in1005.4 mb - 0.00 in0.0 mm 0.01 in0.3 mm
02:35 PM 72.2°F22.3°C 55.2°F12.9°C 55% 2.3 mph ENE3.7 kmh ENE 3.5 mph5.6 kmh 29.69 in1005.4 mb - 0.00 in0.0 mm 0.01 in0.3 mm
02:40 PM 71.7°F22.1°C 54.7°F12.6°C 55% 2.3 mph NE3.7 kmh NE 2.3 mph3.7 kmh 29.69 in1005.4 mb - 0.00 in0.0 mm 0.01 in0.3 mm
02:45 PM 71.4°F21.9°C 55.4°F13.0°C 57% 2.3 mph NE3.7 kmh NE 2.3 mph3.7 kmh 29.69 in1005.4 mb - 0.00 in0.0 mm 0.01 in0.3 mm
02:50 PM 71.1°F21.7°C 55.5°F13.1°C 58% Calm Calm -- 29.69 in1005.4 mb - 0.00 in0.0 mm 0.01 in0.3 mm
02:55 PM 70.9°F21.6°C 55.8°F13.2°C 59% 2.3 mph E3.7 kmh E 3.5 mph5.6 kmh 29.69 in1005.4 mb - 0.00 in0.0 mm 0.01 in0.3 mm
03:00 PM 70.6°F21.4°C 55.5°F13.1°C 59% 3.5 mph E5.6 kmh E 3.5 mph5.6 kmh 29.68 in1005.1 mb - 0.00 in0.0 mm 0.01 in0.3 mm
03:10 PM 70.1°F21.2°C 56.0°F13.3°C 61% 3.5 mph E5.6 kmh E 5.8 mph9.3 kmh 29.68 in1005.1 mb - 0.00 in0.0 mm 0.01 in0.3 mm
03:15 PM 69.8°F21.0°C 55.7°F13.2°C 61% 3.5 mph SE5.6 kmh SE 3.5 mph5.6 kmh 29.69 in1005.4 mb - 0.00 in0.0 mm 0.01 in0.3 mm
03:20 PM 69.6°F20.9°C 56.0°F13.3°C 62% 3.5 mph E5.6 kmh E 3.5 mph5.6 kmh 29.69 in1005.4 mb - 0.00 in0.0 mm 0.01 in0.3 mm
03:25 PM 69.4°F20.8°C 56.3°F13.5°C 63% 3.5 mph ESE5.6 kmh ESE 2.3 mph3.7 kmh 29.69 in1005.4 mb - 0.00 in0.0 mm 0.01 in0.3 mm
03:30 PM 69.1°F20.6°C 56.4°F13.6°C 64% 3.5 mph E5.6 kmh E 4.6 mph7.4 kmh 29.69 in1005.4 mb - 0.00 in0.0 mm 0.01 in0.3 mm
03:35 PM 68.8°F20.4°C 56.6°F13.7°C 65% 5.8 mph SSE9.3 kmh SSE 6.9 mph11.1 kmh 29.69 in1005.4 mb - 0.00 in0.0 mm 0.01 in0.3 mm
03:40 PM 68.4°F20.2°C 57.0°F13.9°C 67% 4.6 mph E7.4 kmh E 4.6 mph7.4 kmh 29.69 in1005.4 mb - 0.00 in0.0 mm 0.01 in0.3 mm
03:45 PM 68.4°F20.2°C 57.4°F14.1°C 68% 3.5 mph S5.6 kmh S 4.6 mph7.4 kmh 29.69 in1005.4 mb - 0.00 in0.0 mm 0.01 in0.3 mm
03:50 PM 68.2°F20.1°C 57.6°F14.2°C 69% 3.5 mph S5.6 kmh S 3.5 mph5.6 kmh 29.69 in1005.4 mb - 0.00 in0.0 mm 0.01 in0.3 mm
03:55 PM 68.2°F20.1°C 57.6°F14.2°C 69% 3.5 mph S5.6 kmh S 3.5 mph5.6 kmh 29.69 in1005.4 mb - 0.00 in0.0 mm 0.01 in0.3 mm
04:00 PM 68.0°F20.0°C 57.4°F14.1°C 69% 2.3 mph S3.7 kmh S 3.5 mph5.6 kmh 29.68 in1005.1 mb - 0.00 in0.0 mm 0.01 in0.3 mm
04:10 PM 67.6°F19.8°C 57.5°F14.2°C 70% 1.2 mph SSW1.9 kmh SSW 1.2 mph1.9 kmh 29.68 in1005.1 mb - 0.00 in0.0 mm 0.01 in0.3 mm
04:15 PM 67.6°F19.8°C 57.9°F14.4°C 71% 2.3 mph S3.7 kmh S 3.5 mph5.6 kmh 29.69 in1005.4 mb - 0.00 in0.0 mm 0.01 in0.3 mm
04:20 PM 67.5°F19.7°C 57.7°F14.3°C 71% Calm Calm -- 29.69 in1005.4 mb - 0.00 in0.0 mm 0.01 in0.3 mm
04:25 PM 67.3°F19.6°C 58.0°F14.4°C 72% 2.3 mph S3.7 kmh S 3.5 mph5.6 kmh 29.69 in1005.4 mb - 0.00 in0.0 mm 0.01 in0.3 mm
04:30 PM 67.1°F19.5°C 57.8°F14.3°C 72% Calm Calm -- 29.68 in1005.1 mb - 0.00 in0.0 mm 0.01 in0.3 mm
04:35 PM 66.6°F19.2°C 58.0°F14.4°C 74% 1.2 mph S1.9 kmh S 1.2 mph1.9 kmh 29.68 in1005.1 mb - 0.00 in0.0 mm 0.01 in0.3 mm
04:40 PM 66.2°F19.0°C 59.1°F15.1°C 78% 1.2 mph NW1.9 kmh NW 2.3 mph3.7 kmh 29.68 in1005.1 mb - 0.00 in0.0 mm 0.01 in0.3 mm
04:45 PM 65.8°F18.8°C 59.1°F15.1°C 79% Calm Calm 1.2 mph1.9 kmh 29.69 in1005.4 mb - 0.01 in0.3 mm 0.02 in0.5 mm
04:50 PM 65.8°F18.8°C 59.1°F15.1°C 79% Calm Calm 2.3 mph3.7 kmh 29.69 in1005.4 mb - 0.02 in0.5 mm 0.03 in0.8 mm
04:55 PM 65.7°F18.7°C 59.3°F15.2°C 80% Calm Calm -- 29.69 in1005.4 mb - 0.03 in0.8 mm 0.04 in1.0 mm
05:00 PM 65.5°F18.6°C 58.8°F14.9°C 79% Calm Calm 1.2 mph1.9 kmh 29.70 in1005.8 mb - 0.04 in1.0 mm 0.05 in1.3 mm
05:10 PM 65.1°F18.4°C 58.8°F14.9°C 80% Calm Calm 1.2 mph1.9 kmh 29.70 in1005.8 mb - 0.07 in1.8 mm 0.08 in2.0 mm
05:15 PM 64.9°F18.3°C 58.6°F14.8°C 80% 1.2 mph N1.9 kmh N 2.3 mph3.7 kmh 29.69 in1005.4 mb - 0.08 in2.0 mm 0.09 in2.3 mm
05:20 PM 64.6°F18.1°C 58.3°F14.6°C 80% 2.3 mph SSE3.7 kmh SSE 3.5 mph5.6 kmh 29.69 in1005.4 mb - 0.15 in3.8 mm 0.16 in4.1 mm
05:25 PM 64.1°F17.8°C 57.8°F14.3°C 80% 3.5 mph S5.6 kmh S 3.5 mph5.6 kmh 29.69 in1005.4 mb - 0.20 in5.1 mm 0.21 in5.3 mm
05:30 PM 63.7°F17.6°C 57.5°F14.2°C 80% 3.5 mph SE5.6 kmh SE 3.5 mph5.6 kmh 29.69 in1005.4 mb - 0.20 in5.1 mm 0.21 in5.3 mm
05:35 PM 63.6°F17.6°C 57.7°F14.3°C 81% 3.5 mph S5.6 kmh S 3.5 mph5.6 kmh 29.69 in1005.4 mb - 0.21 in5.3 mm 0.22 in5.6 mm
05:40 PM 63.5°F17.5°C 57.9°F14.4°C 82% 2.3 mph S3.7 kmh S 2.3 mph3.7 kmh 29.69 in1005.4 mb - 0.23 in5.8 mm 0.24 in6.1 mm
05:45 PM 63.3°F17.4°C 57.4°F14.1°C 81% 2.3 mph SSW3.7 kmh SSW 3.5 mph5.6 kmh 29.69 in1005.4 mb - 0.22 in5.6 mm 0.24 in6.1 mm
05:50 PM 63.1°F17.3°C 57.6°F14.2°C 82% 2.3 mph SE3.7 kmh SE 3.5 mph5.6 kmh 29.69 in1005.4 mb - 0.21 in5.3 mm 0.24 in6.1 mm
05:55 PM 63.1°F17.3°C 57.6°F14.2°C 82% Calm Calm -- 29.69 in1005.4 mb - 0.21 in5.3 mm 0.25 in6.4 mm
06:00 PM 63.0°F17.2°C 57.7°F14.3°C 83% 1.2 mph S1.9 kmh S 2.3 mph3.7 kmh 29.70 in1005.8 mb - 0.21 in5.3 mm 0.26 in6.6 mm
06:10 PM 63.0°F17.2°C 57.7°F14.3°C 83% 2.3 mph SE3.7 kmh SE 3.5 mph5.6 kmh 29.70 in1005.8 mb - 0.19 in4.8 mm 0.27 in6.9 mm
06:15 PM 62.8°F17.1°C 57.5°F14.2°C 83% 1.2 mph ESE1.9 kmh ESE -- 29.69 in1005.4 mb - 0.19 in4.8 mm 0.28 in7.1 mm
06:20 PM 62.8°F17.1°C 57.9°F14.4°C 84% Calm Calm -- 29.69 in1005.4 mb - 0.16 in4.1 mm 0.29 in7.4 mm
06:25 PM 62.6°F17.0°C 57.7°F14.3°C 84% 1.2 mph SSW1.9 kmh SSW 1.2 mph1.9 kmh 29.69 in1005.4 mb - 0.11 in2.8 mm 0.30 in7.6 mm
06:30 PM 62.5°F16.9°C 57.9°F14.4°C 85% 1.2 mph ESE1.9 kmh ESE 2.3 mph3.7 kmh 29.69 in1005.4 mb - 0.10 in2.5 mm 0.31 in7.9 mm
06:35 PM 62.4°F16.9°C 58.1°F14.5°C 86% Calm Calm 3.5 mph5.6 kmh 29.69 in1005.4 mb - 0.12 in3.0 mm 0.34 in8.6 mm
06:40 PM 62.1°F16.7°C 57.8°F14.3°C 86% 1.2 mph ENE1.9 kmh ENE 1.2 mph1.9 kmh 29.69 in1005.4 mb - 0.19 in4.8 mm 0.43 in10.9 mm
06:45 PM 62.1°F16.7°C 57.8°F14.3°C 86% Calm Calm 1.2 mph1.9 kmh 29.69 in1005.4 mb - 0.21 in5.3 mm 0.45 in11.4 mm
06:50 PM 61.9°F16.6°C 57.6°F14.2°C 86% Calm Calm -- 29.69 in1005.4 mb - 0.22 in5.6 mm 0.46 in11.7 mm
06:55 PM 61.9°F16.6°C 57.6°F14.2°C 86% Calm Calm -- 29.69 in1005.4 mb - 0.22 in5.6 mm 0.46 in11.7 mm
07:00 PM 61.9°F16.6°C 57.6°F14.2°C 86% 1.2 mph SSW1.9 kmh SSW 2.3 mph3.7 kmh 29.69 in1005.4 mb - 0.20 in5.1 mm 0.46 in11.7 mm
07:10 PM 61.9°F16.6°C 58.0°F14.4°C 87% 1.2 mph SSW1.9 kmh SSW 1.2 mph1.9 kmh 29.69 in1005.4 mb - 0.19 in4.8 mm 0.46 in11.7 mm
07:15 PM 61.9°F16.6°C 58.0°F14.4°C 87% 1.2 mph WNW1.9 kmh WNW 1.2 mph1.9 kmh 29.69 in1005.4 mb - 0.19 in4.8 mm 0.46 in11.7 mm
07:20 PM 61.7°F16.5°C 58.1°F14.5°C 88% 1.2 mph WNW1.9 kmh WNW 2.3 mph3.7 kmh 29.69 in1005.4 mb - 0.17 in4.3 mm 0.46 in11.7 mm
07:25 PM 61.7°F16.5°C 58.1°F14.5°C 88% Calm Calm -- 29.69 in1005.4 mb - 0.16 in4.1 mm 0.46 in11.7 mm
07:30 PM 61.7°F16.5°C 58.1°F14.5°C 88% Calm Calm -- 29.69 in1005.4 mb - 0.15 in3.8 mm 0.46 in11.7 mm
07:35 PM 61.7°F16.5°C 58.1°F14.5°C 88% 1.2 mph WNW1.9 kmh WNW 1.2 mph1.9 kmh 29.69 in1005.4 mb - 0.12 in3.0 mm 0.46 in11.7 mm
07:40 PM 61.7°F16.5°C 58.4°F14.7°C 89% Calm Calm -- 29.69 in1005.4 mb - 0.03 in0.8 mm 0.46 in11.7 mm
07:45 PM 61.7°F16.5°C 58.4°F14.7°C 89% Calm Calm 1.2 mph1.9 kmh 29.69 in1005.4 mb - 0.02 in0.5 mm 0.46 in11.7 mm
07:50 PM 61.7°F16.5°C 58.4°F14.7°C 89% Calm Calm -- 29.69 in1005.4 mb - 0.00 in0.0 mm 0.46 in11.7 mm
07:55 PM 61.7°F16.5°C 58.4°F14.7°C 89% Calm Calm -- 29.69 in1005.4 mb - 0.00 in0.0 mm 0.46 in11.7 mm
08:00 PM 61.7°F16.5°C 58.4°F14.7°C 89% Calm Calm -- 29.69 in1005.4 mb - 0.00 in0.0 mm 0.46 in11.7 mm
08:10 PM 61.7°F16.5°C 58.4°F14.7°C 89% Calm Calm 1.2 mph1.9 kmh 29.69 in1005.4 mb - 0.00 in0.0 mm 0.46 in11.7 mm
08:15 PM 61.7°F16.5°C 58.4°F14.7°C 89% Calm Calm 1.2 mph1.9 kmh 29.70 in1005.8 mb - 0.00 in0.0 mm 0.46 in11.7 mm
08:20 PM 61.7°F16.5°C 58.4°F14.7°C 89% 1.2 mph WNW1.9 kmh WNW 2.3 mph3.7 kmh 29.70 in1005.8 mb - 0.00 in0.0 mm 0.46 in11.7 mm
08:25 PM 61.7°F16.5°C 58.4°F14.7°C 89% Calm Calm -- 29.70 in1005.8 mb - 0.00 in0.0 mm 0.46 in11.7 mm
08:30 PM 61.7°F16.5°C 58.4°F14.7°C 89% 1.2 mph NW1.9 kmh NW 1.2 mph1.9 kmh 29.69 in1005.4 mb - 0.00 in0.0 mm 0.46 in11.7 mm
08:35 PM 61.7°F16.5°C 58.4°F14.7°C 89% Calm Calm -- 29.69 in1005.4 mb - 0.00 in0.0 mm 0.46 in11.7 mm
08:40 PM 61.7°F16.5°C 58.4°F14.7°C 89% Calm Calm -- 29.69 in1005.4 mb - 0.00 in0.0 mm 0.46 in11.7 mm
08:45 PM 61.7°F16.5°C 58.4°F14.7°C 89% Calm Calm -- 29.70 in1005.8 mb - 0.00 in0.0 mm 0.46 in11.7 mm
08:50 PM 61.7°F16.5°C 58.4°F14.7°C 89% Calm Calm -- 29.70 in1005.8 mb - 0.00 in0.0 mm 0.46 in11.7 mm
08:55 PM 61.7°F16.5°C 58.4°F14.7°C 89% Calm Calm -- 29.70 in1005.8 mb - 0.00 in0.0 mm 0.46 in11.7 mm
09:00 PM 61.7°F16.5°C 58.4°F14.7°C 89% Calm Calm 1.2 mph1.9 kmh 29.70 in1005.8 mb - 0.00 in0.0 mm 0.46 in11.7 mm
09:10 PM 61.7°F16.5°C 58.4°F14.7°C 89% Calm Calm -- 29.70 in1005.8 mb - 0.00 in0.0 mm 0.46 in11.7 mm
09:15 PM 61.7°F16.5°C 58.4°F14.7°C 89% Calm Calm -- 29.71 in1006.1 mb - 0.00 in0.0 mm 0.46 in11.7 mm
09:20 PM 61.7°F16.5°C 58.4°F14.7°C 89% Calm Calm -- 29.71 in1006.1 mb - 0.00 in0.0 mm 0.46 in11.7 mm
09:25 PM 61.7°F16.5°C 58.4°F14.7°C 89% Calm Calm -- 29.71 in1006.1 mb - 0.00 in0.0 mm 0.46 in11.7 mm
09:30 PM 61.2°F16.2°C 58.5°F14.7°C 91% Calm Calm -- 29.70 in1005.8 mb - 0.01 in0.3 mm 0.47 in11.9 mm
09:35 PM 61.2°F16.2°C 58.5°F14.7°C 91% Calm Calm 1.2 mph1.9 kmh 29.70 in1005.8 mb - 0.01 in0.3 mm 0.47 in11.9 mm
09:40 PM 61.2°F16.2°C 58.5°F14.7°C 91% Calm Calm -- 29.70 in1005.8 mb - 0.01 in0.3 mm 0.47 in11.9 mm
09:45 PM 61.2°F16.2°C 58.5°F14.7°C 91% Calm Calm -- 29.71 in1006.1 mb - 0.01 in0.3 mm 0.47 in11.9 mm
09:50 PM 61.2°F16.2°C 58.5°F14.7°C 91% Calm Calm -- 29.71 in1006.1 mb - 0.01 in0.3 mm 0.47 in11.9 mm
09:55 PM 61.2°F16.2°C 58.5°F14.7°C 91% Calm Calm -- 29.71 in1006.1 mb - 0.01 in0.3 mm 0.47 in11.9 mm
10:00 PM 61.2°F16.2°C 58.5°F14.7°C 91% Calm Calm -- 29.71 in1006.1 mb - 0.01 in0.3 mm 0.47 in11.9 mm
10:10 PM 61.2°F16.2°C 58.5°F14.7°C 91% Calm Calm -- 29.71 in1006.1 mb - 0.01 in0.3 mm 0.47 in11.9 mm
10:15 PM 61.2°F16.2°C 58.5°F14.7°C 91% Calm Calm -- 29.71 in1006.1 mb - 0.01 in0.3 mm 0.47 in11.9 mm
10:20 PM 61.2°F16.2°C 58.5°F14.7°C 91% Calm Calm -- 29.71 in1006.1 mb - 0.01 in0.3 mm 0.47 in11.9 mm
10:25 PM 61.2°F16.2°C 58.5°F14.7°C 91% Calm Calm -- 29.71 in1006.1 mb - 0.01 in0.3 mm 0.47 in11.9 mm
10:30 PM 61.2°F16.2°C 58.5°F14.7°C 91% Calm Calm -- 29.70 in1005.8 mb - 0.00 in0.0 mm 0.47 in11.9 mm
10:35 PM 61.2°F16.2°C 58.5°F14.7°C 91% Calm Calm -- 29.70 in1005.8 mb - 0.00 in0.0 mm 0.47 in11.9 mm
10:40 PM 61.2°F16.2°C 58.5°F14.7°C 91% Calm Calm -- 29.70 in1005.8 mb - 0.00 in0.0 mm 0.47 in11.9 mm
10:45 PM 61.2°F16.2°C 58.5°F14.7°C 91% Calm Calm -- 29.71 in1006.1 mb - 0.00 in0.0 mm 0.47 in11.9 mm
10:50 PM 61.2°F16.2°C 58.5°F14.7°C 91% Calm Calm -- 29.71 in1006.1 mb - 0.00 in0.0 mm 0.47 in11.9 mm
10:55 PM 61.2°F16.2°C 58.5°F14.7°C 91% Calm Calm -- 29.71 in1006.1 mb - 0.00 in0.0 mm 0.47 in11.9 mm
11:00 PM 61.2°F16.2°C 58.5°F14.7°C 91% Calm Calm -- 29.71 in1006.1 mb - 0.00 in0.0 mm 5.25 in133.4 mm
11:10 PM 61.2°F16.2°C 58.5°F14.7°C 91% Calm Calm -- 29.71 in1006.1 mb - 0.00 in0.0 mm 5.25 in133.4 mm
11:15 PM 61.2°F16.2°C 58.5°F14.7°C 91% Calm Calm -- 29.71 in1006.1 mb - 0.00 in0.0 mm 5.25 in133.4 mm
11:20 PM 61.2°F16.2°C 58.5°F14.7°C 91% Calm Calm -- 29.71 in1006.1 mb - 0.00 in0.0 mm 5.25 in133.4 mm
11:25 PM 61.2°F16.2°C 58.5°F14.7°C 91% Calm Calm -- 29.71 in1006.1 mb - 0.00 in0.0 mm 5.25 in133.4 mm
11:30 PM 60.6°F15.9°C 58.3°F14.6°C 92% Calm Calm -- 29.70 in1005.8 mb - 0.01 in0.3 mm 0.01 in0.3 mm
11:35 PM 60.6°F15.9°C 58.3°F14.6°C 92% Calm Calm 1.2 mph1.9 kmh 29.70 in1005.8 mb - 0.01 in0.3 mm 0.01 in0.3 mm
11:40 PM 60.6°F15.9°C 58.3°F14.6°C 92% 1.2 mph NNW1.9 kmh NNW 2.3 mph3.7 kmh 29.70 in1005.8 mb - 0.01 in0.3 mm 0.01 in0.3 mm
11:45 PM 60.6°F15.9°C 58.3°F14.6°C 92% Calm Calm -- 29.71 in1006.1 mb - 0.01 in0.3 mm 0.01 in0.3 mm
11:50 PM 60.4°F15.8°C 58.1°F14.5°C 92% Calm Calm -- 29.71 in1006.1 mb - 0.01 in0.3 mm 0.01 in0.3 mm
11:55 PM 60.4°F15.8°C 58.1°F14.5°C 92% Calm Calm -- 29.71 in1006.1 mb - 0.01 in0.3 mm 0.01 in0.3 mm